Time,TemperatureF,DewpointF,PressureIn,WindDirection,WindDirectionDegrees,WindSpeedMPH,WindSpeedGustMPH,Humidity,HourlyPrecipIn,Conditions,Clouds,dailyrainin,SoftwareType,DateUTC
2013-04-02 00:02:00,30.0,22.0,30.19,NW,320,7.0,8.0,71,0.00,,,0.00,,2013-04-02 05:02:00,
2013-04-02 00:12:00,30.0,22.0,30.19,NW,320,7.0,8.0,71,0.00,,,0.00,,2013-04-02 05:12:00,
2013-04-02 00:22:00,30.0,22.0,30.19,NW,304,7.0,8.0,71,0.00,,,0.00,,2013-04-02 05:22:00,
2013-04-02 00:32:00,29.0,21.0,30.20,WNW,301,6.0,7.0,72,0.00,,,0.00,,2013-04-02 05:32:00,
2013-04-02 00:42:00,29.0,21.0,30.20,WNW,301,6.0,7.0,72,0.00,,,0.00,,2013-04-02 05:42:00,
2013-04-02 00:52:00,29.0,21.0,30.20,NW,305,0.0,0.0,73,0.00,,,0.00,,2013-04-02 05:52:00,
2013-04-02 01:02:00,28.0,21.0,30.21,North,0,0.0,0.0,74,0.00,,,0.00,,2013-04-02 06:02:00,
2013-04-02 01:12:00,28.0,21.0,30.21,North,0,0.0,0.0,74,0.00,,,0.00,,2013-04-02 06:12:00,
2013-04-02 01:22:00,28.0,21.0,30.21,North,0,0.0,0.0,75,0.00,,,0.00,,2013-04-02 06:22:00,
2013-04-02 01:32:00,28.0,22.0,30.21,WNW,284,5.0,0.0,77,0.00,,,0.00,,2013-04-02 06:32:00,
2013-04-02 01:42:00,28.0,22.0,30.21,WNW,284,5.0,0.0,77,0.00,,,0.00,,2013-04-02 06:42:00,
2013-04-02 01:52:00,27.0,21.0,30.22,NW,326,7.0,8.0,77,0.00,,,0.00,,2013-04-02 06:52:00,
2013-04-02 02:02:00,27.0,21.0,30.22,NW,304,1.0,0.0,77,0.00,,,0.00,,2013-04-02 07:02:00,
2013-04-02 02:12:00,27.0,21.0,30.22,NW,304,1.0,0.0,77,0.00,,,0.00,,2013-04-02 07:12:00,
2013-04-02 02:22:00,27.0,21.0,30.22,NW,304,1.0,0.0,77,0.00,,,0.00,,2013-04-02 07:22:00,
2013-04-02 02:32:00,27.0,21.0,30.22,NW,306,3.0,0.0,79,0.00,,,0.00,,2013-04-02 07:32:00,
2013-04-02 02:43:00,27.0,21.0,30.22,NW,306,3.0,0.0,79,0.00,,,0.00,,2013-04-02 07:43:00,
2013-04-02 02:53:00,26.0,21.0,30.22,West,281,6.0,6.0,80,0.00,,,0.00,,2013-04-02 07:53:00,
2013-04-02 03:02:00,26.0,21.0,30.22,NW,312,7.0,8.0,82,0.00,,,0.00,,2013-04-02 08:02:00,
2013-04-02 03:13:00,26.0,21.0,30.22,NW,312,7.0,8.0,82,0.00,,,0.00,,2013-04-02 08:13:00,
2013-04-02 03:22:00,26.0,21.0,30.22,NW,312,7.0,8.0,82,0.00,,,0.00,,2013-04-02 08:22:00,
2013-04-02 03:32:00,26.0,21.0,30.22,NW,304,7.0,7.0,82,0.00,,,0.00,,2013-04-02 08:32:00,
2013-04-02 03:43:00,26.0,21.0,30.22,NW,304,7.0,7.0,82,0.00,,,0.00,,2013-04-02 08:43:00,
2013-04-02 03:52:00,25.0,21.0,30.22,WNW,289,6.0,6.0,83,0.00,,,0.00,,2013-04-02 08:52:00,
2013-04-02 04:02:00,25.0,21.0,30.23,WNW,287,6.0,6.0,83,0.00,,,0.00,,2013-04-02 09:02:00,
2013-04-02 04:12:00,25.0,21.0,30.23,WNW,287,6.0,6.0,83,0.00,,,0.00,,2013-04-02 09:12:00,
2013-04-02 04:22:00,24.0,20.0,30.23,WNW,287,6.0,6.0,84,0.00,,,0.00,,2013-04-02 09:22:00,
2013-04-02 04:32:00,24.0,20.0,30.23,WNW,299,1.0,0.0,85,0.00,,,0.00,,2013-04-02 09:32:00,
2013-04-02 04:43:00,24.0,20.0,30.23,WNW,299,1.0,0.0,85,0.00,,,0.00,,2013-04-02 09:43:00,
2013-04-02 04:52:00,24.0,20.0,30.23,WNW,296,5.0,6.0,86,0.00,,,0.00,,2013-04-02 09:52:00,
2013-04-02 05:03:00,23.0,19.0,30.23,NW,308,0.0,0.0,86,0.00,,,0.00,,2013-04-02 10:03:00,
2013-04-02 05:13:00,23.0,19.0,30.23,NW,308,0.0,0.0,86,0.00,,,0.00,,2013-04-02 10:13:00,
2013-04-02 05:23:00,23.0,20.0,30.24,WNW,282,5.0,5.0,88,0.00,,,0.00,,2013-04-02 10:23:00,
2013-04-02 05:33:00,23.0,20.0,30.24,NW,305,5.0,6.0,88,0.00,,,0.00,,2013-04-02 10:33:00,
2013-04-02 05:42:00,23.0,20.0,30.24,NW,305,5.0,6.0,88,0.00,,,0.00,,2013-04-02 10:42:00,
2013-04-02 05:52:00,23.0,20.0,30.24,NW,304,5.0,6.0,89,0.00,,,0.00,,2013-04-02 10:52:00,
2013-04-02 06:02:00,23.0,20.0,30.24,West,275,5.0,6.0,89,0.00,,,0.00,,2013-04-02 11:02:00,
2013-04-02 06:12:00,23.0,20.0,30.24,West,275,5.0,6.0,89,0.00,,,0.00,,2013-04-02 11:12:00,
2013-04-02 06:22:00,22.0,20.0,30.25,WNW,284,6.0,6.0,90,0.00,,,0.00,,2013-04-02 11:22:00,
2013-04-02 06:33:00,22.0,20.0,30.26,WNW,288,5.0,5.0,90,0.00,,,0.00,,2013-04-02 11:33:00,
2013-04-02 06:43:00,22.0,20.0,30.26,WNW,288,5.0,5.0,90,0.00,,,0.00,,2013-04-02 11:43:00,
2013-04-02 06:52:00,22.0,20.0,30.26,North,0,1.0,6.0,91,0.00,,,0.00,,2013-04-02 11:52:00,
2013-04-02 07:02:00,22.0,20.0,30.26,WNW,285,5.0,6.0,91,0.00,,,0.00,,2013-04-02 12:02:00,
2013-04-02 07:12:00,22.0,20.0,30.26,WNW,285,5.0,6.0,91,0.00,,,0.00,,2013-04-02 12:12:00,
2013-04-02 07:22:00,22.0,20.0,30.26,WNW,296,5.0,6.0,92,0.00,,,0.00,,2013-04-02 12:22:00,
2013-04-02 07:32:00,24.0,22.0,30.27,WNW,292,5.0,6.0,92,0.00,,,0.00,,2013-04-02 12:32:00,
2013-04-02 07:42:00,24.0,22.0,30.27,WNW,292,5.0,6.0,92,0.00,,,0.00,,2013-04-02 12:42:00,
2013-04-02 07:52:00,31.0,26.0,30.28,West,280,2.0,6.0,82,0.00,,,0.00,,2013-04-02 12:52:00,
2013-04-02 08:02:00,36.0,26.0,30.28,NW,320,0.0,0.0,66,0.00,,,0.00,,2013-04-02 13:02:00,
2013-04-02 08:12:00,40.0,26.0,30.29,WNW,292,1.0,6.0,57,0.00,,,0.00,,2013-04-02 13:12:00,
2013-04-02 08:22:00,40.0,26.0,30.29,WNW,292,1.0,6.0,57,0.00,,,0.00,,2013-04-02 13:22:00,
2013-04-02 08:33:00,42.0,26.0,30.29,NW,308,6.0,9.0,52,0.00,,,0.00,,2013-04-02 13:33:00,
2013-04-02 08:42:00,42.0,26.0,30.29,NW,308,6.0,9.0,52,0.00,,,0.00,,2013-04-02 13:42:00,
2013-04-02 08:52:00,42.0,25.0,30.29,WNW,295,6.0,9.0,51,0.00,,,0.00,,2013-04-02 13:52:00,
2013-04-02 09:02:00,44.0,26.0,30.29,NW,311,6.0,9.0,48,0.00,,,0.00,,2013-04-02 14:02:00,
2013-04-02 09:12:00,44.0,26.0,30.29,NW,311,6.0,9.0,48,0.00,,,0.00,,2013-04-02 14:12:00,
2013-04-02 09:23:00,46.0,26.0,30.30,NNW,339,6.0,8.0,45,0.00,,,0.00,,2013-04-02 14:23:00,
2013-04-02 09:32:00,46.0,25.0,30.30,NW,319,5.0,5.0,44,0.00,,,0.00,,2013-04-02 14:32:00,
2013-04-02 09:42:00,46.0,25.0,30.30,NW,319,5.0,5.0,44,0.00,,,0.00,,2013-04-02 14:42:00,
2013-04-02 09:52:00,48.0,24.0,30.30,NW,316,3.0,8.0,39,0.00,,,0.00,,2013-04-02 14:52:00,
2013-04-02 10:02:00,48.0,21.0,30.30,NW,312,3.0,0.0,34,0.00,,,0.00,,2013-04-02 15:02:00,
2013-04-02 10:11:00,48.0,21.0,30.30,NW,312,3.0,0.0,34,0.00,,,0.00,,2013-04-02 15:11:00,
2013-04-02 10:22:00,48.0,21.0,30.30,NW,312,3.0,0.0,34,0.00,,,0.00,,2013-04-02 15:22:00,
2013-04-02 10:33:00,49.0,20.0,30.30,West,272,1.0,0.0,32,0.00,,,0.00,,2013-04-02 15:33:00,
2013-04-02 10:43:00,49.0,20.0,30.30,West,272,1.0,0.0,32,0.00,,,0.00,,2013-04-02 15:43:00,
2013-04-02 10:58:00,50.0,21.0,30.30,West,263,6.0,6.0,32,0.00,,,0.00,,2013-04-02 15:58:00,
2013-04-02 11:13:00,50.0,21.0,30.30,NNW,328,1.0,0.0,31,0.00,,,0.00,,2013-04-02 16:13:00,
2013-04-02 11:24:00,50.0,21.0,30.30,West,271,0.0,0.0,31,0.00,,,0.00,,2013-04-02 16:24:00,
2013-04-02 11:43:00,50.0,21.0,30.30,West,271,0.0,0.0,31,0.00,,,0.00,,2013-04-02 16:43:00,
2013-04-02 11:52:00,50.0,21.0,30.29,WSW,248,2.0,7.0,32,0.00,,,0.00,,2013-04-02 16:52:00,
2013-04-02 12:05:00,49.0,20.0,30.29,NNW,328,2.0,5.0,32,0.00,,,0.00,,2013-04-02 17:05:00,
2013-04-02 12:13:00,49.0,20.0,30.29,NNW,328,2.0,5.0,32,0.00,,,0.00,,2013-04-02 17:13:00,
2013-04-02 12:24:00,51.0,21.0,30.29,West,267,1.0,7.0,31,0.00,,,0.00,,2013-04-02 17:24:00,
2013-04-02 12:34:00,50.0,19.0,30.28,WNW,294,5.0,7.0,29,0.00,,,0.00,,2013-04-02 17:34:00,
2013-04-02 12:43:00,50.0,19.0,30.28,WNW,294,5.0,7.0,29,0.00,,,0.00,,2013-04-02 17:43:00,
2013-04-02 12:53:00,49.0,18.0,30.28,WNW,295,6.0,9.0,29,0.00,,,0.00,,2013-04-02 17:53:00,
2013-04-02 13:03:00,49.0,19.0,30.27,NW,323,6.0,9.0,30,0.00,,,0.00,,2013-04-02 18:03:00,
2013-04-02 13:12:00,49.0,19.0,30.27,NW,323,6.0,9.0,30,0.00,,,0.00,,2013-04-02 18:12:00,
2013-04-02 13:23:00,49.0,19.0,30.27,WNW,284,7.0,8.0,30,0.00,,,0.00,,2013-04-02 18:23:00,
2013-04-02 13:43:00,48.0,17.0,30.26,NW,311,8.0,10.0,29,0.00,,,0.00,,2013-04-02 18:43:00,
2013-04-02 13:54:00,48.0,18.0,30.26,WNW,282,8.0,10.0,30,0.00,,,0.00,,2013-04-02 18:54:00,
2013-04-02 14:03:00,49.0,17.0,30.25,WNW,291,8.0,8.0,28,0.00,,,0.00,,2013-04-02 19:03:00,
2013-04-02 14:13:00,49.0,17.0,30.25,WNW,291,8.0,8.0,28,0.00,,,0.00,,2013-04-02 19:13:00,
2013-04-02 14:23:00,48.0,16.0,30.24,West,281,3.0,8.0,28,0.00,,,0.00,,2013-04-02 19:23:00,
2013-04-02 14:33:00,48.0,16.0,30.24,West,281,3.0,8.0,28,0.00,,,0.00,,2013-04-02 19:33:00,
2013-04-02 14:45:00,48.0,16.0,30.24,West,281,3.0,8.0,28,0.00,,,0.00,,2013-04-02 19:45:00,
2013-04-02 14:53:00,48.0,18.0,30.23,West,272,8.0,12.0,30,0.00,,,0.00,,2013-04-02 19:53:00,
2013-04-02 15:03:00,48.0,18.0,30.23,West,272,8.0,12.0,30,0.00,,,0.00,,2013-04-02 20:03:00,
2013-04-02 15:13:00,48.0,18.0,30.23,West,272,8.0,12.0,30,0.00,,,0.00,,2013-04-02 20:13:00,
2013-04-02 15:22:00,47.0,18.0,30.22,West,278,6.0,8.0,31,0.00,,,0.00,,2013-04-02 20:22:00,
2013-04-02 15:33:00,47.0,16.0,30.22,NW,322,7.0,12.0,28,0.00,,,0.00,,2013-04-02 20:33:00,
2013-04-02 15:44:00,47.0,16.0,30.22,NW,322,7.0,12.0,28,0.00,,,0.00,,2013-04-02 20:44:00,
2013-04-02 15:53:00,47.0,16.0,30.22,NW,322,7.0,12.0,28,0.00,,,0.00,,2013-04-02 20:53:00,
2013-04-02 16:04:00,47.0,16.0,30.22,WNW,288,10.0,10.0,28,0.00,,,0.00,,2013-04-02 21:04:00,
2013-04-02 16:13:00,47.0,16.0,30.22,WNW,288,10.0,10.0,28,0.00,,,0.00,,2013-04-02 21:13:00,
2013-04-02 16:23:00,47.0,16.0,30.21,WNW,287,7.0,15.0,29,0.00,,,0.00,,2013-04-02 21:23:00,
2013-04-02 16:34:00,47.0,15.0,30.21,NW,315,10.0,12.0,27,0.00,,,0.00,,2013-04-02 21:34:00,
2013-04-02 16:43:00,47.0,15.0,30.21,NW,315,10.0,12.0,27,0.00,,,0.00,,2013-04-02 21:43:00,
2013-04-02 16:54:00,47.0,15.0,30.21,NNW,333,13.0,15.0,27,0.00,,,0.00,,2013-04-02 21:54:00,
2013-04-02 17:04:00,46.0,16.0,30.21,NW,312,7.0,13.0,29,0.00,,,0.00,,2013-04-02 22:04:00,
2013-04-02 17:14:00,46.0,16.0,30.21,NW,312,7.0,13.0,29,0.00,,,0.00,,2013-04-02 22:14:00,
2013-04-02 17:24:00,46.0,16.0,30.21,NW,312,7.0,13.0,29,0.00,,,0.00,,2013-04-02 22:24:00,
2013-04-02 17:33:00,46.0,16.0,30.21,NW,306,13.0,16.0,30,0.00,,,0.00,,2013-04-02 22:33:00,
2013-04-02 17:44:00,46.0,16.0,30.21,NW,306,13.0,16.0,30,0.00,,,0.00,,2013-04-02 22:44:00,
2013-04-02 17:54:00,46.0,16.0,30.21,NW,306,13.0,16.0,30,0.00,,,0.00,,2013-04-02 22:54:00,
2013-04-02 18:03:00,46.0,17.0,30.21,WNW,289,9.0,12.0,31,0.00,,,0.00,,2013-04-02 23:03:00,
2013-04-02 18:13:00,46.0,17.0,30.21,WNW,289,9.0,12.0,31,0.00,,,0.00,,2013-04-02 23:13:00,
2013-04-02 18:23:00,46.0,17.0,30.21,WNW,289,9.0,12.0,31,0.00,,,0.00,,2013-04-02 23:23:00,
2013-04-02 18:34:00,45.0,18.0,30.22,West,275,8.0,10.0,33,0.00,,,0.00,,2013-04-02 23:34:00,
2013-04-02 18:43:00,45.0,18.0,30.22,West,275,8.0,10.0,33,0.00,,,0.00,,2013-04-02 23:43:00,
2013-04-02 18:54:00,44.0,17.0,30.22,NW,305,9.0,12.0,33,0.00,,,0.00,,2013-04-02 23:54:00,
2013-04-02 19:04:00,44.0,17.0,30.22,NW,305,9.0,12.0,33,0.00,,,0.00,,2013-04-03 00:04:00,
2013-04-02 19:13:00,44.0,17.0,30.22,NW,305,9.0,12.0,33,0.00,,,0.00,,2013-04-03 00:13:00,
2013-04-02 19:24:00,43.0,18.0,30.23,WNW,292,9.0,9.0,36,0.00,,,0.00,,2013-04-03 00:24:00,
2013-04-02 19:33:00,42.0,19.0,30.23,NW,323,8.0,9.0,39,0.00,,,0.00,,2013-04-03 00:33:00,
2013-04-02 19:46:00,42.0,19.0,30.23,NW,323,8.0,9.0,39,0.00,,,0.00,,2013-04-03 00:46:00,
2013-04-02 19:53:00,41.0,20.0,30.23,NNW,335,7.0,12.0,43,0.00,,,0.00,,2013-04-03 00:53:00,
2013-04-02 20:03:00,41.0,20.0,30.23,NNW,335,7.0,12.0,43,0.00,,,0.00,,2013-04-03 01:03:00,
2013-04-02 20:12:00,41.0,20.0,30.23,NNW,335,7.0,12.0,43,0.00,,,0.00,,2013-04-03 01:12:00,
2013-04-02 20:22:00,39.0,21.0,30.24,NW,316,7.0,9.0,49,0.00,,,0.00,,2013-04-03 01:22:00,
2013-04-02 20:33:00,39.0,21.0,30.24,NW,316,7.0,9.0,49,0.00,,,0.00,,2013-04-03 01:33:00,
2013-04-02 20:42:00,39.0,21.0,30.24,NW,316,7.0,9.0,49,0.00,,,0.00,,2013-04-03 01:42:00,
2013-04-02 20:52:00,38.0,22.0,30.26,NW,312,7.0,8.0,53,0.00,,,0.00,,2013-04-03 01:52:00,
2013-04-02 21:03:00,37.0,22.0,30.26,NNW,329,6.0,8.0,54,0.00,,,0.00,,2013-04-03 02:03:00,
2013-04-02 21:13:00,37.0,22.0,30.26,NNW,329,6.0,8.0,54,0.00,,,0.00,,2013-04-03 02:13:00,
2013-04-02 21:23:00,37.0,23.0,30.26,NW,318,7.0,9.0,56,0.00,,,0.00,,2013-04-03 02:23:00,
2013-04-02 21:34:00,36.0,22.0,30.27,NW,316,7.0,8.0,57,0.00,,,0.00,,2013-04-03 02:34:00,
2013-04-02 21:43:00,36.0,22.0,30.27,NW,316,7.0,8.0,57,0.00,,,0.00,,2013-04-03 02:43:00,
2013-04-02 21:52:00,35.0,22.0,30.27,NNW,335,7.0,8.0,58,0.00,,,0.00,,2013-04-03 02:52:00,
2013-04-02 22:05:00,35.0,22.0,30.27,NNW,335,7.0,8.0,58,0.00,,,0.00,,2013-04-03 03:05:00,
2013-04-02 22:13:00,35.0,22.0,30.27,NNW,335,7.0,8.0,58,0.00,,,0.00,,2013-04-03 03:13:00,
2013-04-02 22:23:00,34.0,21.0,30.28,NW,315,7.0,10.0,58,0.00,,,0.00,,2013-04-03 03:23:00,
2013-04-02 22:37:00,34.0,21.0,30.28,NW,315,7.0,10.0,58,0.00,,,0.00,,2013-04-03 03:37:00,
2013-04-02 22:43:00,34.0,21.0,30.28,NW,315,7.0,10.0,58,0.00,,,0.00,,2013-04-03 03:43:00,
2013-04-02 22:52:00,33.0,21.0,30.29,NW,325,6.0,7.0,60,0.00,,,0.00,,2013-04-03 03:52:00,
2013-04-02 22:53:00,33.0,21.0,30.29,NW,311,7.0,12.0,60,0.00,,,0.00,,2013-04-03 03:53:00,
2013-04-02 23:03:00,33.0,20.0,30.29,NW,325,7.0,9.0,59,0.00,,,0.00,,2013-04-03 04:03:00,
2013-04-02 23:12:00,33.0,20.0,30.29,NW,325,7.0,9.0,59,0.00,,,0.00,,2013-04-03 04:12:00,
2013-04-02 23:23:00,33.0,21.0,30.29,NW,325,6.0,7.0,60,0.00,,,0.00,,2013-04-03 04:23:00,
2013-04-02 23:33:00,33.0,21.0,30.29,NW,325,6.0,7.0,60,0.00,,,0.00,,2013-04-03 04:33:00,
2013-04-02 23:43:00,33.0,21.0,30.29,NW,325,6.0,7.0,60,0.00,,,0.00,,2013-04-03 04:43:00,